• Join FlightAware (Why Join?)
  • Login
  • US Flag 
08:20AM EDT


 

Airport Tracker/Info


-or-


 

Live Flight TrackerFlight Track Log ✈ UAL4846 ✈ 21-Apr-2013 ✈ KROC - KEWR

Flight Track Log - Related Links

Times and Time Zones

All times are in EDT time to prevent confusion due to time zone crossing. See the UAL4846 flight status page for this flight to view local times or setup timezone preferences in your user account.

Time Position Orientation Groundspeed Altitude Reporting Facility
EDT Latitude Longitude Course Direction KTS MPH feet Rate Location/Type
09:31AM 43.1014 -77.6914 124° Southeast 151 174 1,300  Level Cleveland Center
09:32AM 43.0717 -77.6672 149° Southeast 158 182 2,600 1,500 Climbing Cleveland Center
09:34AM 43.0425 -77.5833 115° Southeast 178 205 4,900 1,500 Climbing Cleveland Center
09:35AM 43.0181 -77.5247 120° Southeast 173 199 6,400 1,260 Climbing Cleveland Center
09:36AM 42.9953 -77.4578 115° Southeast 179 206 7,500 1,200 Climbing Cleveland Center
09:37AM 42.8759 -77.1184 124° Southeast  Level FlightAware Approximate
09:37AM 42.9703 -77.3853 115° Southeast 197 227 8,800  Level Cleveland Center
09:38AM 42.9414 -77.3131 119° Southeast 202 232 10,100 1,140 Climbing Cleveland Center
09:40AM 42.8864 -77.1556 115° Southeast 233 268 12,400 900 Climbing New York Center
09:41AM 42.8556 -77.0706 116° Southeast 244 281 13,000 300 Climbing New York Center
09:42AM 42.8189 -76.9764 118° Southeast 264 304 13,000  Level New York Center
09:43AM 42.7756 -76.8847 123° Southeast 281 323 13,000  Level New York Center
09:44AM 42.7344 -76.7933 121° Southeast 287 330 13,000  Level New York Center
09:45AM 42.6933 -76.6994 121° Southeast 292 336 13,000  Level New York Center
09:46AM 42.6522 -76.6083 122° Southeast 292 336 13,000  Level New York Center
09:47AM 42.6069 -76.5083 122° Southeast 292 336 13,000  Level New York Center
09:48AM 42.5658 -76.4147 121° Southeast 292 336 13,000  Level New York Center
09:49AM 42.5244 -76.3211 121° Southeast 292 336 13,000  Level New York Center
09:49AM 42.4947 -76.2589 123° Southeast 289 333 13,000  Level Boston Center
09:50AM 42.4519 -76.1633 121° Southeast 289 333 13,000  Level Boston Center
09:51AM 42.4092 -76.0678 121° Southeast 289 333 13,000  Level Boston Center
09:52AM 42.3661 -75.9783 123° Southeast 289 333 13,000  Level Boston Center
09:53AM 42.3233 -75.8803 121° Southeast 289 333 13,000  Level Boston Center
09:54AM 42.2803 -75.7853 121° Southeast 283 326 13,000  Level Boston Center
09:55AM 42.2372 -75.6903 121° Southeast 288 331 13,000  Level Boston Center
09:56AM 42.1939 -75.5956 122° Southeast 288 331 13,000  Level Boston Center
09:57AM 42.1506 -75.5011 122° Southeast 293 337 13,000  Level Boston Center
09:58AM 42.1053 -75.4064 123° Southeast 293 337 13,000  Level Boston Center
09:59AM 42.0597 -75.3119 123° Southeast 298 343 13,000  Level Boston Center
10:00AM 42.0247 -75.2125 115° Southeast 298 343 13,000 -360 Level Boston Center
10:01AM 41.9814 -75.1044 118° Southeast 298 343 12,300 -660 Descending Boston Center
10:02AM 41.9461 -75.0136 118° Southeast 298 343 11,700 -780 Descending Boston Center
10:03AM 41.8744 -74.9467 145° Southeast 285 328 10,800 -900 Descending Boston Center
10:04AM 41.8111 -74.8967 150° Southeast 293 337 10,000 -900 Descending Boston Center
10:05AM 41.7350 -74.8383 150° Southeast 288 331 9,100 -840 Descending Boston Center
10:06AM 41.6756 -74.7942 151° Southeast 278 320 8,400 -720 Descending Boston Center
10:07AM 41.6244 -74.7533 149° Southeast 273 314 7,700 -720 Descending Boston Center
10:08AM 41.5569 -74.6872 144° Southeast 263 303 7,000 -540 Descending Boston Center
10:09AM 41.5150 -74.5969 122° Southeast 257 296 6,700 -480 Descending Boston Center
10:10AM 41.4525 -74.5867 173° South 230 265 6,100 -300 Descending Boston Center
10:12AM 41.3167 -74.6167 189° South 263 303 6,000 -60 Descending New York TRACON
10:13AM 41.2667 -74.5667 143° Southeast 261 300 6,000  Level New York TRACON
10:14AM 41.2000 -74.5500 169° South 261 300 6,000  Level New York TRACON
10:15AM 41.1167 -74.5500 180° South 263 303 6,000  Level New York TRACON
10:16AM 41.0500 -74.5333 169° South 262 302 6,000  Level New York TRACON
10:17AM 40.9833 -74.5333 180° South 262 302 6,000  Level New York TRACON
10:18AM 40.9167 -74.5333 180° South 260 299 6,000  Level New York TRACON
10:19AM 40.8500 -74.5500 191° South 255 293 6,000  Level New York TRACON
10:20AM 40.7667 -74.5333 171° South 261 300 6,000  Level New York TRACON
10:21AM 40.7000 -74.5167 169° South 260 299 6,000 -240 Level New York TRACON
10:22AM 40.6333 -74.5000 169° South 262 302 5,600 -600 Descending New York TRACON
10:23AM 40.5833 -74.4333 135° Southeast 262 302 4,900 -1,020 Descending New York TRACON
10:24AM 40.5667 -74.3500 105° East 234 269 3,600 -1,140 Descending New York TRACON
10:25AM 40.5833 -74.2833 72° East 214 246 2,700 -900 Descending New York TRACON